Time;durP1;ratioP1;P1;durP2;ratioP2;P2;SDS_P1;SDS_P2;PMS_P1;PMS_P2;Temp;Humidity;BMP_temperature;BMP_pressure;BME280_temperature;BME280_humidity;BME280_pressure;Samples;Min_cycle;Max_cycle;Signal;HPM_P1;HPM_P2
2022/09/28 00:01:33;;;;;;;30.00;17.33;;;;;;;6.17;100.00;99605.78;5046361;28;20092;-76
2022/09/28 00:03:59;;;;;;;29.60;17.10;;;;;;;6.08;100.00;99604.31;5047628;28;20477;-76
2022/09/28 00:06:27;;;;;;;29.05;17.52;;;;;;;6.12;100.00;99605.06;5047637;28;20025;-76
2022/09/28 00:08:53;;;;;;;29.70;18.20;;;;;;;6.13;100.00;99617.13;5045764;28;20021;-76
2022/09/28 00:11:19;;;;;;;27.98;18.45;;;;;;;6.13;100.00;99616.28;5060568;28;20380;-76
2022/09/28 00:13:50;;;;;;;35.95;18.67;;;;;;;6.17;100.00;99616.13;5053227;28;20047;-76
2022/09/28 00:16:18;;;;;;;37.85;19.05;;;;;;;6.22;100.00;99616.03;5059588;28;20020;-76
2022/09/28 00:18:44;;;;;;;36.90;19.60;;;;;;;6.22;100.00;99601.38;5057799;28;20495;-75
2022/09/28 00:21:12;;;;;;;36.60;19.10;;;;;;;6.29;100.00;99613.25;5049510;28;20116;-76
2022/09/28 00:24:11;;;;;;;38.72;19.48;;;;;;;6.32;100.00;99613.19;5053585;28;20033;-76
2022/09/28 00:26:24;;;;;;;36.05;20.00;;;;;;;6.28;100.00;99593.44;5058773;28;20049;-76
2022/09/28 00:28:51;;;;;;;40.33;20.65;;;;;;;6.31;100.00;99595.06;5045269;28;20018;-76
2022/09/28 00:31:17;;;;;;;36.97;21.10;;;;;;;6.26;100.00;99586.59;5052257;28;20032;-76
2022/09/28 00:33:43;;;;;;;38.17;21.52;;;;;;;6.24;100.00;99594.38;5062096;28;20024;-76
2022/09/28 00:36:08;;;;;;;41.13;22.00;;;;;;;6.24;100.00;99599.56;5051717;28;20445;-76
2022/09/28 00:38:33;;;;;;;39.97;22.63;;;;;;;6.27;100.00;99590.88;5047578;28;20021;-76
2022/09/28 00:40:59;;;;;;;40.97;22.20;;;;;;;6.31;100.00;99590.78;5049369;28;20041;-76
2022/09/28 00:43:25;;;;;;;42.85;23.02;;;;;;;6.32;100.00;99589.88;5058802;28;20512;-76
2022/09/28 00:45:57;;;;;;;40.60;23.73;;;;;;;6.26;100.00;99574.50;5052228;28;20032;-76
2022/09/28 00:48:26;;;;;;;50.58;23.88;;;;;;;6.22;100.00;99582.41;5048141;28;20021;-76
2022/09/28 00:50:51;;;;;;;36.92;22.75;;;;;;;6.16;100.00;99570.47;5042491;28;20382;-76
2022/09/28 00:53:22;;;;;;;40.97;22.45;;;;;;;6.15;100.00;99576.53;5044497;28;20024;-76
2022/09/28 00:55:52;;;;;;;37.67;22.45;;;;;;;6.17;100.00;99569.56;5052006;28;20074;-76
2022/09/28 00:58:25;;;;;;;44.63;24.13;;;;;;;6.19;100.00;99577.31;5049209;28;20032;-76
2022/09/28 01:00:53;;;;;;;36.58;23.30;;;;;;;6.24;100.00;99573.69;5049560;28;20028;-76
2022/09/28 01:03:18;;;;;;;44.97;24.75;;;;;;;6.26;100.00;99571.91;5049423;28;20024;-76
2022/09/28 01:05:45;;;;;;;44.35;24.77;;;;;;;6.28;100.00;99564.97;5049519;28;20033;-76
2022/09/28 01:08:13;;;;;;;52.75;26.05;;;;;;;6.30;100.00;99558.00;5047120;28;20086;-76
2022/09/28 01:10:39;;;;;;;47.60;25.65;;;;;;;6.31;100.00;99562.31;5049101;28;20028;-76
2022/09/28 01:13:04;;;;;;;50.53;26.65;;;;;;;6.34;100.00;99563.94;5045051;28;20075;-76
2022/09/28 01:15:37;;;;;;;51.88;26.15;;;;;;;6.36;100.00;99569.94;5043162;28;20431;-76
2022/09/28 01:18:19;;;;;;;49.70;26.70;;;;;;;6.35;100.00;99576.00;5044122;28;20464;-76
2022/09/28 01:20:55;;;;;;;48.10;26.23;;;;;;;6.35;100.00;99563.06;5047531;28;20099;-76
2022/09/28 01:23:36;;;;;;;46.85;26.05;;;;;;;6.44;100.00;99569.72;5044426;28;20476;-76
2022/09/28 01:26:23;;;;;;;46.95;26.92;;;;;;;6.46;100.00;99573.97;5048542;28;20035;-76
2022/09/28 01:28:58;;;;;;;49.38;26.42;;;;;;;6.47;100.00;99569.63;5048876;28;20025;-76
2022/09/28 01:31:29;;;;;;;49.90;26.75;;;;;;;6.48;100.00;99574.78;5040232;28;20761;-76
2022/09/28 01:34:03;;;;;;;46.28;27.60;;;;;;;6.48;100.00;99573.94;5051861;28;20382;-76
2022/09/28 01:36:33;;;;;;;52.15;27.45;;;;;;;6.49;100.00;99578.22;5042540;28;20067;-76
2022/09/28 01:39:04;;;;;;;59.97;28.77;;;;;;;6.49;100.00;99576.47;5050246;28;20029;-75
2022/09/28 01:41:35;;;;;;;54.58;29.23;;;;;;;6.49;100.00;99583.41;5049789;28;20041;-77
2022/09/28 01:44:03;;;;;;;60.65;29.35;;;;;;;6.48;100.00;99573.94;5044416;28;20366;-77
2022/09/28 01:46:45;;;;;;;70.40;31.05;;;;;;;6.49;100.00;99578.22;5048146;28;20469;-76
2022/09/28 01:49:14;;;;;;;54.72;30.70;;;;;;;6.51;100.00;99585.06;5039035;28;20028;-76
2022/09/28 01:51:39;;;;;;;62.90;31.55;;;;;;;6.53;100.00;99579.84;5045817;28;20035;-76
2022/09/28 01:54:17;;;;;;;60.78;32.30;;;;;;;6.50;100.00;99575.59;5045464;28;20025;-77
2022/09/28 01:56:51;;;;;;;65.45;32.55;;;;;;;6.55;100.00;99586.69;5050456;28;20025;-76
2022/09/28 01:59:40;;;;;;;70.60;33.88;;;;;;;6.57;100.00;99582.31;5048314;28;20081;-76
2022/09/28 02:02:17;;;;;;;75.20;35.15;;;;;;;6.59;100.00;99578.84;5053692;28;20040;-77
2022/09/28 02:04:58;;;;;;;82.53;36.80;;;;;;;6.61;100.00;99575.31;5051739;28;20389;-77
2022/09/28 02:07:31;;;;;;;88.68;35.90;;;;;;;6.61;100.00;99575.31;5041187;28;20033;-76
2022/09/28 02:10:01;;;;;;;79.30;35.88;;;;;;;6.62;100.00;99570.97;5051491;28;20673;-76
2022/09/28 02:12:37;;;;;;;76.10;34.15;;;;;;;6.63;100.00;99580.44;5051234;28;20021;-76
2022/09/28 02:15:18;;;;;;;70.72;33.72;;;;;;;6.62;100.00;99574.41;5050549;28;20426;-76
2022/09/28 02:17:44;;;;;;;64.78;31.42;;;;;;;6.56;100.00;99575.41;5048756;28;20389;-76
2022/09/28 02:20:09;;;;;;;67.03;31.33;;;;;;;6.48;100.00;99568.78;5047709;28;20025;-76
2022/09/28 02:22:42;;;;;;;64.32;30.67;;;;;;;6.46;100.00;99573.13;5040627;28;20035;-76
2022/09/28 02:25:27;;;;;;;60.08;29.17;;;;;;;6.38;100.00;99572.50;5047304;28;20036;-76
2022/09/28 02:27:55;;;;;;;61.42;28.92;;;;;;;6.31;100.00;99576.97;5046420;28;20141;-77
2022/09/28 02:30:21;;;;;;;50.33;26.92;;;;;;;6.23;100.00;99578.91;5049381;28;20071;-76
2022/09/28 02:32:50;;;;;;;51.08;26.23;;;;;;;6.14;100.00;99580.00;5049871;28;20028;-76
2022/09/28 02:35:17;;;;;;;46.75;24.60;;;;;;;6.11;100.00;99580.06;5048420;28;20025;-77
2022/09/28 02:37:44;;;;;;;51.67;25.00;;;;;;;6.08;100.00;99582.72;5050383;28;20372;-77
2022/09/28 02:40:13;;;;;;;49.58;25.10;;;;;;;6.04;100.00;99575.94;5050178;28;20522;-76
2022/09/28 02:42:52;;;;;;;47.65;25.63;;;;;;;6.00;100.00;99580.34;5046656;28;20496;-77
2022/09/28 02:45:27;;;;;;;46.13;23.67;;;;;;;5.99;100.00;99570.03;5050258;28;20032;-76
2022/09/28 02:48:29;;;;;;;41.50;24.27;;;;;;;5.97;100.00;99572.66;5041266;28;20026;-76
2022/09/28 02:51:14;;;;;;;44.70;24.08;;;;;;;5.94;100.00;99584.81;5047830;28;20447;-76
2022/09/28 02:53:51;;;;;;;38.67;21.60;;;;;;;5.91;100.00;99583.13;5046607;28;20090;-76
2022/09/28 02:56:21;;;;;;;42.00;21.65;;;;;;;5.81;100.00;99579.91;5050673;28;20043;-76
2022/09/28 02:59:17;;;;;;;41.05;21.08;;;;;;;5.79;100.00;99588.59;5047097;28;20120;-77
2022/09/28 03:02:07;;;;;;;42.30;21.35;;;;;;;5.77;100.00;99588.63;5047957;28;20030;-76
2022/09/28 03:04:55;;;;;;;38.38;20.88;;;;;;;5.82;100.00;99593.69;5047554;28;20028;-76
2022/09/28 03:07:32;;;;;;;39.08;19.75;;;;;;;5.82;100.00;99601.44;5053694;28;20029;-77
2022/09/28 03:10:05;;;;;;;44.13;21.13;;;;;;;5.88;100.00;99580.59;5048284;28;20087;-76
2022/09/28 03:12:32;;;;;;;42.70;19.37;;;;;;;5.91;100.00;99592.63;5052539;28;20025;-76
2022/09/28 03:15:12;;;;;;;40.97;20.40;;;;;;;5.95;100.00;99587.38;5044840;28;20037;-77
2022/09/28 03:17:38;;;;;;;40.75;19.70;;;;;;;5.94;100.00;99596.00;5045787;28;20095;-76
2022/09/28 03:20:04;;;;;;;47.60;19.83;;;;;;;5.98;100.00;99586.44;5044817;28;20477;-76
2022/09/28 03:22:30;;;;;;;39.33;18.92;;;;;;;5.97;100.00;99579.56;5047811;28;20111;-76
2022/09/28 03:24:55;;;;;;;43.03;19.65;;;;;;;6.04;100.00;99592.31;5041467;28;20187;-77
2022/09/28 03:27:21;;;;;;;41.58;18.75;;;;;;;6.05;100.00;99581.09;5053208;28;20029;-77
2022/09/28 03:29:47;;;;;;;36.10;17.73;;;;;;;6.08;100.00;99587.91;5044780;28;20025;-77
2022/09/28 03:32:12;;;;;;;40.10;18.35;;;;;;;6.07;100.00;99581.03;5052541;28;20527;-77
2022/09/28 03:34:37;;;;;;;35.38;17.58;;;;;;;6.06;100.00;99584.53;5046761;28;20115;-77
2022/09/28 03:37:02;;;;;;;36.25;16.88;;;;;;;6.08;100.00;99587.91;5053082;28;20082;-77
2022/09/28 03:39:28;;;;;;;32.10;16.35;;;;;;;6.05;100.00;99580.25;5052199;28;20035;-77
2022/09/28 03:41:53;;;;;;;31.40;16.02;;;;;;;6.04;100.00;99589.72;5053369;28;20029;-76
2022/09/28 03:44:18;;;;;;;33.65;15.45;;;;;;;6.01;100.00;99596.72;5041415;28;20022;-76
2022/09/28 03:46:45;;;;;;;28.70;15.55;;;;;;;6.00;100.00;99593.28;5050153;28;20028;-77
2022/09/28 03:49:10;;;;;;;30.63;15.73;;;;;;;5.97;100.00;99597.69;5045236;28;20029;-75
2022/09/28 03:51:35;;;;;;;33.65;16.42;;;;;;;5.98;100.00;99596.78;5049419;28;20091;-76
2022/09/28 03:54:01;;;;;;;28.98;15.40;;;;;;;5.97;100.00;99595.94;5048992;28;20029;-76
2022/09/28 03:56:26;;;;;;;34.45;15.60;;;;;;;5.97;100.00;99603.69;5050113;28;20397;-76
2022/09/28 03:58:51;;;;;;;32.95;15.10;;;;;;;5.94;100.00;99605.50;5052988;28;20116;-76
2022/09/28 04:01:17;;;;;;;29.10;14.50;;;;;;;5.86;100.00;99587.56;5051243;28;20036;-76
2022/09/28 04:03:42;;;;;;;32.75;14.10;;;;;;;5.91;100.00;99588.28;5043832;28;20378;-76
2022/09/28 04:06:08;;;;;;;32.13;13.77;;;;;;;5.91;100.00;99595.22;5042149;28;20029;-76
2022/09/28 04:08:33;;;;;;;26.30;13.52;;;;;;;5.95;100.00;99597.72;5043864;28;20022;-76
2022/09/28 04:10:59;;;;;;;25.15;13.25;;;;;;;5.99;100.00;99596.75;5048359;28;20029;-76
2022/09/28 04:13:26;;;;;;;25.77;13.27;;;;;;;5.98;100.00;99597.63;5047750;28;20036;-76
2022/09/28 04:15:54;;;;;;;23.10;12.20;;;;;;;6.03;100.00;99598.38;5050020;28;20024;-76
2022/09/28 04:18:20;;;;;;;28.38;12.30;;;;;;;6.06;100.00;99600.88;5049851;28;20029;-76
2022/09/28 04:20:46;;;;;;;23.10;11.00;;;;;;;6.06;100.00;99587.94;5048363;28;20021;-76
2022/09/28 04:23:13;;;;;;;18.65;10.02;;;;;;;6.08;100.00;99590.50;5047441;28;20028;-77
2022/09/28 04:25:39;;;;;;;29.73;10.70;;;;;;;6.14;100.00;99592.09;5051533;28;20346;-78
2022/09/28 04:30:48;;;;;;;;;;;;;;;6.18;100.00;99596.28;5042577;28;20044;-78
2022/09/28 04:33:13;;;;;;;22.30;9.18;;;;;;;6.11;100.00;99593.00;5048220;28;20295;-78
2022/09/28 04:35:38;;;;;;;18.02;8.60;;;;;;;6.13;100.00;99593.81;5045571;28;20032;-77
2022/09/28 04:38:04;;;;;;;18.65;8.73;;;;;;;6.13;100.00;99595.56;5053002;28;20044;-77
2022/09/28 04:40:29;;;;;;;15.80;8.50;;;;;;;6.14;100.00;99585.16;5051515;28;20045;-77
2022/09/28 04:42:56;;;;;;;17.95;9.02;;;;;;;6.19;100.00;99595.41;5049864;28;20021;-77
2022/09/28 04:45:24;;;;;;;17.98;8.13;;;;;;;6.10;100.00;99586.97;5049848;28;20039;-77
2022/09/28 04:47:50;;;;;;;16.70;8.13;;;;;;;6.06;100.00;99590.53;5050327;28;20047;-76
2022/09/28 04:50:15;;;;;;;16.67;7.78;;;;;;;6.03;100.00;99592.34;5047330;28;20491;-76
2022/09/28 04:52:40;;;;;;;17.90;8.10;;;;;;;6.01;100.00;99589.78;5049327;28;20033;-76
2022/09/28 04:55:06;;;;;;;19.42;7.88;;;;;;;5.96;100.00;99594.25;5041540;28;20032;-77
2022/09/28 04:57:34;;;;;;;14.68;7.63;;;;;;;5.87;100.00;99597.03;5047188;28;20017;-76
2022/09/28 05:00:00;;;;;;;17.00;8.20;;;;;;;5.83;100.00;99604.00;5044168;28;20075;-77
2022/09/28 05:02:26;;;;;;;16.40;8.32;;;;;;;5.72;100.00;99603.41;5037016;28;20029;-77
2022/09/28 05:04:53;;;;;;;16.70;8.63;;;;;;;5.66;100.00;99605.28;5043314;28;20477;-76
2022/09/28 05:07:19;;;;;;;13.27;8.02;;;;;;;5.61;100.00;99610.56;5050351;28;20021;-76
2022/09/28 05:09:44;;;;;;;21.20;8.40;;;;;;;5.53;100.00;99613.31;5049421;28;20025;-76
2022/09/28 05:12:09;;;;;;;14.25;8.80;;;;;;;5.47;100.00;99612.63;5051825;28;20438;-77
2022/09/28 05:14:35;;;;;;;16.45;8.70;;;;;;;5.46;100.00;99610.91;5047444;28;20029;-76
2022/09/28 05:17:01;;;;;;;17.92;9.50;;;;;;;5.49;100.00;99613.41;5051629;28;20032;-76
2022/09/28 05:19:27;;;;;;;22.48;10.00;;;;;;;5.47;100.00;99610.03;5047562;28;20094;-77
2022/09/28 05:21:52;;;;;;;19.95;9.88;;;;;;;5.52;100.00;99613.34;5044651;28;20026;-77
2022/09/28 05:24:17;;;;;;;19.25;10.13;;;;;;;5.48;100.00;99620.31;5047593;28;20107;-76
2022/09/28 05:26:43;;;;;;;17.55;10.05;;;;;;;5.44;100.00;99613.53;5050674;28;20427;-77
2022/09/28 05:29:08;;;;;;;23.73;10.73;;;;;;;5.45;100.00;99616.97;5049942;28;20040;-76
2022/09/28 05:31:33;;;;;;;21.23;10.85;;;;;;;5.36;100.00;99611.13;5050345;28;20052;-77
2022/09/28 05:33:58;;;;;;;22.10;11.38;;;;;;;5.47;100.00;99613.47;5042851;28;20022;-77
2022/09/28 05:36:26;;;;;;;25.73;12.05;;;;;;;5.54;100.00;99616.75;5048996;28;20032;-76
2022/09/28 05:38:51;;;;;;;27.55;12.15;;;;;;;5.57;100.00;99612.38;5050634;28;20056;-77
2022/09/28 05:41:16;;;;;;;29.20;14.05;;;;;;;5.60;100.00;99612.31;5050478;28;20076;-76
2022/09/28 05:43:42;;;;;;;30.02;13.43;;;;;;;5.61;100.00;99614.00;5039908;28;20029;-77
2022/09/28 05:46:08;;;;;;;36.38;13.98;;;;;;;5.60;100.00;99599.38;5043800;28;20028;-77
2022/09/28 05:48:33;;;;;;;26.95;13.50;;;;;;;5.62;100.00;99610.53;5048567;28;20033;-76
2022/09/28 05:50:58;;;;;;;36.55;14.45;;;;;;;5.62;100.00;99614.84;5049798;28;20055;-77
2022/09/28 05:53:24;;;;;;;28.88;13.98;;;;;;;5.63;100.00;99616.56;5047632;28;20413;-77
2022/09/28 05:55:49;;;;;;;32.50;15.27;;;;;;;5.68;100.00;99619.03;5041191;28;20039;-77
2022/09/28 05:58:15;;;;;;;31.27;15.63;;;;;;;5.68;100.00;99614.69;5047706;28;20037;-77
2022/09/28 06:00:41;;;;;;;32.28;15.48;;;;;;;5.69;100.00;99619.00;5047152;28;20048;-76
2022/09/28 06:03:09;;;;;;;37.78;16.70;;;;;;;5.70;100.00;99625.03;5047654;28;20476;-77
2022/09/28 06:05:36;;;;;;;37.78;16.95;;;;;;;5.68;100.00;99626.78;5045480;28;20032;-77
2022/09/28 06:08:04;;;;;;;37.17;17.60;;;;;;;5.63;100.00;99625.16;5042660;28;20025;-77
2022/09/28 06:10:30;;;;;;;43.90;18.27;;;;;;;5.63;100.00;99626.91;5047452;28;20099;-77
2022/09/28 06:12:56;;;;;;;44.20;20.00;;;;;;;5.59;100.00;99627.84;5046246;28;20355;-77
2022/09/28 06:15:24;;;;;;;43.72;19.85;;;;;;;5.59;100.00;99640.75;5037004;28;20075;-77
2022/09/28 06:18:00;;;;;;;41.15;18.92;;;;;;;5.55;100.00;99637.38;5050645;28;20028;-77
2022/09/28 06:20:29;;;;;;;40.20;18.85;;;;;;;5.54;100.00;99633.13;5047846;28;20530;-76
2022/09/28 06:22:54;;;;;;;44.78;19.63;;;;;;;5.50;100.00;99647.00;5044269;28;20705;-77
2022/09/28 06:25:21;;;;;;;47.40;21.48;;;;;;;5.45;100.00;99632.47;5046952;28;20031;-77
2022/09/28 06:28:01;;;;;;;54.22;21.95;;;;;;;5.40;100.00;99632.56;5050239;28;20032;-76
2022/09/28 06:30:30;;;;;;;53.63;22.35;;;;;;;5.41;100.00;99623.94;5044105;28;20038;-76
2022/09/28 06:32:57;;;;;;;53.40;23.20;;;;;;;5.49;100.00;99634.94;5051136;28;20497;-76
2022/09/28 06:35:24;;;;;;;46.42;23.42;;;;;;;5.51;100.00;99632.34;5050926;28;20035;-76
2022/09/28 06:37:51;;;;;;;61.72;26.00;;;;;;;5.58;100.00;99641.66;5054114;28;20518;-76
2022/09/28 06:40:17;;;;;;;64.45;25.98;;;;;;;5.62;100.00;99651.03;5054083;28;20574;-76
2022/09/28 06:42:43;;;;;;;59.70;26.17;;;;;;;5.56;100.00;99635.69;5052732;28;20056;-76
2022/09/28 06:45:09;;;;;;;55.92;26.40;;;;;;;5.67;100.00;99650.94;5054899;28;20110;-76
2022/09/28 06:47:35;;;;;;;63.00;26.52;;;;;;;5.68;100.00;99658.66;5047424;28;20021;-76
2022/09/28 06:50:00;;;;;;;65.57;26.13;;;;;;;5.73;100.00;99651.66;5050385;28;20025;-76
2022/09/28 06:52:26;;;;;;;66.63;27.73;;;;;;;5.81;100.00;99659.22;5052816;28;20136;-76
2022/09/28 06:54:51;;;;;;;68.40;28.25;;;;;;;5.86;100.00;99654.81;5043962;28;20036;-75
2022/09/28 06:57:16;;;;;;;72.72;28.55;;;;;;;5.90;100.00;99656.44;5047561;28;20060;-76
2022/09/28 06:59:42;;;;;;;60.65;28.00;;;;;;;5.97;100.00;99655.44;5053855;28;20021;-76
2022/09/28 07:02:11;;;;;;;69.75;27.45;;;;;;;6.03;100.00;99657.03;5053418;28;20389;-76
2022/09/28 07:04:40;;;;;;;71.78;28.77;;;;;;;6.10;100.00;99654.25;5054169;28;20025;-77
2022/09/28 07:07:07;;;;;;;77.30;30.20;;;;;;;6.25;100.00;99667.72;5054834;28;20477;-76
2022/09/28 07:09:33;;;;;;;74.85;30.40;;;;;;;6.44;100.00;99668.09;5052664;28;20041;-76
2022/09/28 07:11:58;;;;;;;79.53;31.15;;;;;;;6.52;100.00;99667.03;5054516;28;20084;-76
2022/09/28 07:14:24;;;;;;;88.68;31.77;;;;;;;6.68;100.00;99672.66;5054308;28;20487;-77
2022/09/28 07:16:49;;;;;;;82.95;33.15;;;;;;;6.77;100.00;99669.00;5052973;28;20044;-77
2022/09/28 07:19:15;;;;;;;79.97;31.10;;;;;;;6.79;100.00;99670.63;5054630;28;20025;-77
2022/09/28 07:21:40;;;;;;;76.30;29.10;;;;;;;6.87;100.00;99664.41;5054379;28;20029;-77
2022/09/28 07:24:06;;;;;;;77.65;29.10;;;;;;;6.92;100.00;99671.16;5054024;28;20447;-77
2022/09/28 07:26:32;;;;;;;69.15;27.40;;;;;;;6.87;100.00;99665.25;5052843;28;20032;-77
2022/09/28 07:28:57;;;;;;;75.38;26.50;;;;;;;6.92;100.00;99675.50;5054495;28;20029;-77
2022/09/28 07:31:24;;;;;;;66.60;26.00;;;;;;;6.92;100.00;99680.66;5052962;28;20031;-76
2022/09/28 07:33:50;;;;;;;64.18;25.55;;;;;;;6.91;100.00;99673.78;5054616;28;20461;-77
2022/09/28 07:36:16;;;;;;;63.83;26.65;;;;;;;6.89;100.00;99670.38;5053019;28;20039;-77
2022/09/28 07:38:42;;;;;;;59.67;24.45;;;;;;;6.97;100.00;99678.81;5053486;28;20013;-77
2022/09/28 07:41:11;;;;;;;58.03;23.60;;;;;;;6.95;100.00;99680.59;5054078;28;20044;-77
2022/09/28 07:43:38;;;;;;;61.95;24.25;;;;;;;7.01;100.00;99672.66;5053897;28;20021;-77
2022/09/28 07:46:08;;;;;;;57.60;24.17;;;;;;;7.03;100.00;99679.50;5053628;28;20376;-76
2022/09/28 07:48:35;;;;;;;60.08;24.38;;;;;;;7.07;100.00;99680.25;5054051;28;20017;-77
2022/09/28 07:51:00;;;;;;;49.08;23.38;;;;;;;7.13;100.00;99680.09;5047263;28;20033;-77
2022/09/28 07:53:27;;;;;;;56.30;24.13;;;;;;;7.19;100.00;99682.53;5051395;28;20369;-80
2022/09/28 07:55:54;;;;;;;51.30;24.00;;;;;;;7.23;100.00;99691.06;5042665;28;20040;-76
2022/09/28 07:58:21;;;;;;;62.80;25.42;;;;;;;7.28;100.00;99690.00;5040812;28;20393;-77
2022/09/28 08:00:47;;;;;;;58.25;25.38;;;;;;;7.34;100.00;99693.34;5054311;28;20104;-77
2022/09/28 08:03:14;;;;;;;63.88;25.00;;;;;;;7.35;100.00;99676.88;5054102;28;20036;-77
2022/09/28 08:05:40;;;;;;;61.28;24.92;;;;;;;7.40;100.00;99683.63;5051516;28;20032;-77
2022/09/28 08:08:05;;;;;;;65.85;26.52;;;;;;;7.43;100.00;99686.16;5054070;28;20021;-77
2022/09/28 08:10:30;;;;;;;61.00;27.63;;;;;;;7.51;100.00;99693.69;5052922;28;20029;-77
2022/09/28 08:13:00;;;;;;;62.53;26.90;;;;;;;7.52;100.00;99687.63;5053082;28;20036;-77
2022/09/28 08:15:26;;;;;;;69.05;28.48;;;;;;;7.60;100.00;99690.00;5053291;28;20038;-76
2022/09/28 08:17:51;;;;;;;67.47;30.60;;;;;;;7.65;100.00;99698.47;5053882;28;20025;-77
2022/09/28 08:23:07;;;;;;;;;;;;;;;7.78;100.00;99710.19;5041043;28;20043;-77
2022/09/28 08:25:35;;;;;;;62.67;28.83;;;;;;;7.79;100.00;99700.69;5047581;28;19913;-76
2022/09/28 08:28:01;;;;;;;62.63;30.05;;;;;;;7.84;100.00;99712.59;5052153;28;20481;-77
2022/09/28 08:30:27;;;;;;;67.32;30.23;;;;;;;7.94;100.00;99710.56;5051128;28;20040;-76
2022/09/28 08:32:52;;;;;;;64.47;30.25;;;;;;;8.00;100.00;99710.38;5052861;28;20017;-77
2022/09/28 08:35:18;;;;;;;69.43;30.30;;;;;;;8.06;100.00;99710.19;5052695;28;20469;-76
2022/09/28 08:37:51;;;;;;;74.25;29.88;;;;;;;8.09;100.00;99711.84;5053221;28;20044;-76
2022/09/28 08:40:25;;;;;;;64.32;29.45;;;;;;;8.09;100.00;99717.88;5048364;28;20041;-76
2022/09/28 08:42:59;;;;;;;60.10;28.35;;;;;;;8.13;100.00;99713.44;5053312;28;20377;-77
2022/09/28 08:45:29;;;;;;;58.38;28.08;;;;;;;8.15;100.00;99725.50;5052637;28;20052;-77
2022/09/28 08:50:54;;;;;;;50.72;25.80;;;;;;;8.06;100.00;99717.13;5053187;28;20043;-77
2022/09/28 08:53:31;;;;;;;51.13;26.02;;;;;;;8.19;100.00;99728.84;5052047;28;20468;-77
2022/09/28 08:56:01;;;;;;;49.63;26.38;;;;;;;8.18;100.00;99729.75;5052403;28;20029;-78
2022/09/28 08:58:32;;;;;;;48.47;25.90;;;;;;;8.29;100.00;99732.84;5052794;28;20119;-77
2022/09/28 09:00:58;;;;;;;48.47;26.10;;;;;;;8.37;100.00;99724.78;5053073;28;20126;-77
2022/09/28 09:03:34;;;;;;;52.20;26.58;;;;;;;8.37;100.00;99725.66;5051629;28;20048;-77
2022/09/28 09:06:17;;;;;;;49.63;27.20;;;;;;;8.51;100.00;99733.03;5053005;28;20021;-78
2022/09/28 09:09:24;;;;;;;50.58;26.38;;;;;;;8.53;100.00;99733.81;5051757;28;20033;-77
2022/09/28 09:11:49;;;;;;;46.42;25.02;;;;;;;8.60;100.00;99740.53;5052899;28;20477;-77
2022/09/28 09:14:36;;;;;;;42.10;24.67;;;;;;;8.66;100.00;99732.53;5052542;28;20033;-77
2022/09/28 09:17:30;;;;;;;43.42;25.13;;;;;;;8.81;100.00;99741.56;5051649;28;20029;-78
2022/09/28 09:20:23;;;;;;;48.10;26.60;;;;;;;9.04;100.00;99761.56;5038507;28;20037;-77
2022/09/28 09:22:59;;;;;;;47.90;26.90;;;;;;;9.08;100.00;99749.31;5041755;28;20536;-77
2022/09/28 09:25:26;;;;;;;46.22;26.83;;;;;;;9.09;100.00;99762.28;5051534;28;20047;-77
2022/09/28 09:28:07;;;;;;;53.03;27.45;;;;;;;9.28;100.00;99751.22;5048118;28;20048;-78
2022/09/28 09:30:57;;;;;;;47.28;26.38;;;;;;;9.40;100.00;99750.78;5040369;28;20087;-77
2022/09/28 09:33:45;;;;;;;42.08;24.67;;;;;;;9.51;100.00;99752.97;5042758;28;20073;-77
2022/09/28 09:36:22;;;;;;;34.22;22.10;;;;;;;9.65;100.00;99757.72;5052109;28;20025;-77
2022/09/28 09:38:54;;;;;;;30.08;20.70;;;;;;;9.74;100.00;99757.34;5042952;28;20071;-77
2022/09/28 09:41:41;;;;;;;27.88;19.73;;;;;;;9.92;100.00;99754.06;5038607;28;20056;-77
2022/09/28 09:44:35;;;;;;;29.63;19.75;;;;;;;10.29;100.00;99753.50;5049853;28;20037;-78
2022/09/28 09:47:11;;;;;;;26.10;21.02;;;;;;;10.65;100.00;99759.91;5040858;28;20083;-77
2022/09/28 09:49:47;;;;;;;26.17;19.30;;;;;;;10.87;100.00;99757.25;5051527;28;20025;-77
2022/09/28 09:52:45;;;;;;;23.77;16.60;;;;;;;11.00;100.00;99756.69;5051400;28;20033;-77
2022/09/28 09:55:43;;;;;;;15.68;11.68;;;;;;;11.08;100.00;99750.28;5041398;28;20025;-77
2022/09/28 09:58:18;;;;;;;12.63;9.15;;;;;;;11.16;100.00;99761.25;5051384;28;20103;-78
2022/09/28 10:00:46;;;;;;;13.18;9.50;;;;;;;11.30;100.00;99752.81;5038034;28;20043;-76
2022/09/28 10:03:25;;;;;;;12.70;9.55;;;;;;;11.52;100.00;99755.34;5043474;28;20428;-76
2022/09/28 10:05:58;;;;;;;11.25;8.73;;;;;;;11.70;100.00;99752.72;5035855;28;20020;-77
2022/09/28 10:08:25;;;;;;;11.00;9.40;;;;;;;11.71;100.00;99748.38;5045062;28;20029;-77
2022/09/28 10:11:01;;;;;;;11.13;7.93;;;;;;;11.68;100.00;99751.97;5052679;28;20017;-77
2022/09/28 10:13:28;;;;;;;8.70;7.10;;;;;;;11.69;100.00;99760.63;5047597;28;20098;-77
2022/09/28 10:15:54;;;;;;;9.18;6.85;;;;;;;11.49;100.00;99762.38;5051565;28;20083;-77
2022/09/28 10:18:20;;;;;;;9.13;7.55;;;;;;;11.42;100.00;99762.72;5051604;28;20025;-76
2022/09/28 10:20:46;;;;;;;11.02;7.65;;;;;;;11.40;100.00;99759.31;5051379;28;20104;-76
2022/09/28 10:23:22;;;;;;;9.57;7.47;;;;;;;11.53;100.00;99752.66;5049265;28;20493;-79
2022/09/28 10:25:50;;;;;;;9.18;7.32;;;;;;;11.74;100.00;99753.47;5047219;28;20035;-76
2022/09/28 10:28:21;;;;;;;9.77;7.93;;;;;;;11.87;100.00;99751.13;5049867;28;20025;-76
2022/09/28 10:30:46;;;;;;;11.20;6.70;;;;;;;11.85;100.00;99751.22;5049687;28;20025;-77
2022/09/28 10:33:33;;;;;;;11.35;7.05;;;;;;;12.16;100.00;99753.28;5050931;28;20048;-74
2022/09/28 10:36:05;;;;;;;9.75;6.70;;;;;;;12.64;100.00;99756.19;5050939;28;20024;-75
2022/09/28 10:38:32;;;;;;;8.07;7.07;;;;;;;12.76;100.00;99757.34;5050936;28;20366;-77
2022/09/28 10:41:00;;;;;;;10.20;6.88;;;;;;;12.59;100.00;99743.34;5046642;28;20094;-76
2022/09/28 10:43:34;;;;;;;8.82;6.70;;;;;;;12.63;100.00;99747.50;5050641;28;20064;-76
2022/09/28 10:46:02;;;;;;;10.60;8.10;;;;;;;12.91;100.00;99745.28;5050964;28;20048;-76
2022/09/28 10:48:35;;;;;;;9.98;6.72;;;;;;;13.32;100.00;99746.66;5050113;28;20041;-76
2022/09/28 10:51:05;;;;;;;;;;;;;;;13.47;100.00;99746.75;5046424;28;20515;-76
2022/09/28 10:53:32;;;;;;;7.78;4.78;;;;;;;13.23;100.00;99749.69;5050483;28;19912;-76
2022/09/28 10:56:21;;;;;;;8.05;4.30;;;;;;;12.85;100.00;99747.28;5050071;28;20032;-76
2022/09/28 10:58:47;;;;;;;5.03;4.18;;;;;;;12.76;100.00;99747.75;5050870;28;20041;-76
2022/09/28 11:01:17;;;;;;;6.45;4.80;;;;;;;12.75;100.00;99743.44;5047567;28;20358;-76
2022/09/28 11:03:58;;;;;;;5.95;4.88;;;;;;;12.80;100.00;99751.88;5045424;28;20030;-75
2022/09/28 11:06:27;;;;;;;5.82;5.28;;;;;;;12.88;100.00;99751.50;5050999;28;20021;-75
2022/09/28 11:08:56;;;;;;;6.80;5.25;;;;;;;12.95;100.00;99750.28;5050650;28;20047;-75
2022/09/28 11:11:23;;;;;;;8.82;5.68;;;;;;;12.89;100.00;99734.91;5042204;28;20075;-75
2022/09/28 11:13:59;;;;;;;7.05;5.90;;;;;;;12.80;100.00;99743.19;5046884;28;20029;-75
2022/09/28 11:16:32;;;;;;;6.82;4.78;;;;;;;13.07;100.00;99748.81;5050942;28;20033;-75
2022/09/28 11:19:03;;;;;;;5.03;3.88;;;;;;;13.44;100.00;99749.53;5054131;28;20025;-75
2022/09/28 11:21:39;;;;;;;6.25;2.63;;;;;;;13.62;100.00;99748.56;5053397;28;20037;-75
2022/09/28 11:24:17;;;;;;;3.78;2.28;;;;;;;13.59;100.00;99746.94;5048281;28;20499;-76
2022/09/28 11:26:45;;;;;;;6.85;3.13;;;;;;;13.43;100.00;99738.22;5049491;28;20028;-75
2022/09/28 11:29:36;;;;;;;7.30;3.17;;;;;;;13.54;100.00;99742.91;5044858;28;20089;-75
2022/09/28 11:32:04;;;;;;;5.50;3.88;;;;;;;13.84;100.00;99735.19;5053523;28;20477;-75
2022/09/28 11:34:35;;;;;;;5.10;3.20;;;;;;;14.38;96.69;99734.81;5049408;28;20034;-75
2022/09/28 11:37:09;;;;;;;5.32;3.38;;;;;;;14.15;100.00;99750.03;5046694;28;20039;-75
2022/09/28 11:39:51;;;;;;;8.07;3.10;;;;;;;13.67;99.95;99745.69;5053856;28;20029;-75
2022/09/28 11:42:45;;;;;;;4.13;3.25;;;;;;;13.38;100.00;99749.88;5054735;28;20485;-74